sensor_id;sensor_type;location;lat;lon;timestamp;temperature;humidity
40323;DHT22;26030;51.164;17.100;2022-08-21T00:00:54;27.30;65.70
40323;DHT22;26030;51.164;17.100;2022-08-21T00:05:57;27.30;65.70
40323;DHT22;26030;51.164;17.100;2022-08-21T00:10:59;27.20;66.10
40323;DHT22;26030;51.164;17.100;2022-08-21T00:16:02;27.20;65.50
40323;DHT22;26030;51.164;17.100;2022-08-21T00:21:05;27.20;65.50
40323;DHT22;26030;51.164;17.100;2022-08-21T00:26:09;27.10;66.10
40323;DHT22;26030;51.164;17.100;2022-08-21T00:31:11;27.10;65.50
40323;DHT22;26030;51.164;17.100;2022-08-21T00:36:14;27.10;65.50
40323;DHT22;26030;51.164;17.100;2022-08-21T00:41:17;27.10;65.50
40323;DHT22;26030;51.164;17.100;2022-08-21T00:46:40;27.00;65.40
40323;DHT22;26030;51.164;17.100;2022-08-21T00:51:47;27.00;66.00
40323;DHT22;26030;51.164;17.100;2022-08-21T00:56:59;27.00;65.30
40323;DHT22;26030;51.164;17.100;2022-08-21T01:02:05;27.00;65.20
40323;DHT22;26030;51.164;17.100;2022-08-21T01:07:09;27.00;65.10
40323;DHT22;26030;51.164;17.100;2022-08-21T01:12:12;27.00;65.10
40323;DHT22;26030;51.164;17.100;2022-08-21T01:17:16;27.00;65.10
40323;DHT22;26030;51.164;17.100;2022-08-21T01:22:20;27.00;65.00
40323;DHT22;26030;51.164;17.100;2022-08-21T01:27:22;27.00;65.30
40323;DHT22;26030;51.164;17.100;2022-08-21T01:32:24;26.90;65.20
40323;DHT22;26030;51.164;17.100;2022-08-21T01:37:27;26.90;64.90
40323;DHT22;26030;51.164;17.100;2022-08-21T01:42:29;26.90;65.50
40323;DHT22;26030;51.164;17.100;2022-08-21T01:47:32;26.90;64.90
40323;DHT22;26030;51.164;17.100;2022-08-21T01:52:34;26.80;64.80
40323;DHT22;26030;51.164;17.100;2022-08-21T01:57:36;26.80;64.90
40323;DHT22;26030;51.164;17.100;2022-08-21T02:02:40;26.80;65.00
40323;DHT22;26030;51.164;17.100;2022-08-21T02:07:44;26.80;64.60
40323;DHT22;26030;51.164;17.100;2022-08-21T02:12:50;26.80;64.50
40323;DHT22;26030;51.164;17.100;2022-08-21T02:17:55;26.90;64.40
40323;DHT22;26030;51.164;17.100;2022-08-21T02:22:59;26.80;64.30
40323;DHT22;26030;51.164;17.100;2022-08-21T02:28:03;26.80;64.30
40323;DHT22;26030;51.164;17.100;2022-08-21T02:33:11;26.80;64.20
40323;DHT22;26030;51.164;17.100;2022-08-21T02:38:16;26.70;64.50
40323;DHT22;26030;51.164;17.100;2022-08-21T02:43:21;26.70;64.10
40323;DHT22;26030;51.164;17.100;2022-08-21T02:48:27;26.70;64.10
40323;DHT22;26030;51.164;17.100;2022-08-21T02:53:32;26.60;64.00
40323;DHT22;26030;51.164;17.100;2022-08-21T02:58:37;26.60;64.00
40323;DHT22;26030;51.164;17.100;2022-08-21T03:03:42;26.60;63.80
40323;DHT22;26030;51.164;17.100;2022-08-21T03:08:46;26.50;64.10
40323;DHT22;26030;51.164;17.100;2022-08-21T03:13:48;26.50;64.20
40323;DHT22;26030;51.164;17.100;2022-08-21T03:18:51;26.50;63.80
40323;DHT22;26030;51.164;17.100;2022-08-21T03:23:54;26.50;63.70
40323;DHT22;26030;51.164;17.100;2022-08-21T03:28:57;26.40;63.50
40323;DHT22;26030;51.164;17.100;2022-08-21T03:33:59;26.40;63.60
40323;DHT22;26030;51.164;17.100;2022-08-21T03:39:02;26.40;63.60
40323;DHT22;26030;51.164;17.100;2022-08-21T03:44:05;26.40;64.30
40323;DHT22;26030;51.164;17.100;2022-08-21T03:49:08;26.30;63.70
40323;DHT22;26030;51.164;17.100;2022-08-21T03:54:10;26.30;64.20
40323;DHT22;26030;51.164;17.100;2022-08-21T03:59:12;26.20;63.60
40323;DHT22;26030;51.164;17.100;2022-08-21T04:04:14;26.20;63.60
40323;DHT22;26030;51.164;17.100;2022-08-21T04:09:17;26.20;63.70
40323;DHT22;26030;51.164;17.100;2022-08-21T04:14:20;26.20;63.60
40323;DHT22;26030;51.164;17.100;2022-08-21T04:19:22;26.10;63.60
40323;DHT22;26030;51.164;17.100;2022-08-21T04:24:25;26.10;63.90
40323;DHT22;26030;51.164;17.100;2022-08-21T04:29:31;26.10;63.60
40323;DHT22;26030;51.164;17.100;2022-08-21T04:34:35;26.00;63.70
40323;DHT22;26030;51.164;17.100;2022-08-21T04:39:38;26.00;63.40
40323;DHT22;26030;51.164;17.100;2022-08-21T04:44:40;26.00;64.20
40323;DHT22;26030;51.164;17.100;2022-08-21T04:49:43;25.90;63.90
40323;DHT22;26030;51.164;17.100;2022-08-21T04:54:46;25.90;64.00
40323;DHT22;26030;51.164;17.100;2022-08-21T04:59:56;25.90;64.10
40323;DHT22;26030;51.164;17.100;2022-08-21T05:04:58;25.90;64.20
40323;DHT22;26030;51.164;17.100;2022-08-21T05:10:02;25.80;64.30
40323;DHT22;26030;51.164;17.100;2022-08-21T05:15:05;25.80;64.70
40323;DHT22;26030;51.164;17.100;2022-08-21T05:20:13;25.70;64.40
40323;DHT22;26030;51.164;17.100;2022-08-21T05:25:16;25.70;64.60
40323;DHT22;26030;51.164;17.100;2022-08-21T05:30:23;25.70;64.60
40323;DHT22;26030;51.164;17.100;2022-08-21T05:35:26;25.60;64.60
40323;DHT22;26030;51.164;17.100;2022-08-21T05:40:30;25.50;64.60
40323;DHT22;26030;51.164;17.100;2022-08-21T05:45:32;25.50;64.40
40323;DHT22;26030;51.164;17.100;2022-08-21T05:50:45;25.50;64.50
40323;DHT22;26030;51.164;17.100;2022-08-21T05:55:48;25.50;64.40
40323;DHT22;26030;51.164;17.100;2022-08-21T06:00:51;25.50;64.70
40323;DHT22;26030;51.164;17.100;2022-08-21T06:05:54;25.50;64.50
40323;DHT22;26030;51.164;17.100;2022-08-21T06:10:58;25.40;64.60
40323;DHT22;26030;51.164;17.100;2022-08-21T06:16:03;25.40;64.50
40323;DHT22;26030;51.164;17.100;2022-08-21T06:21:10;25.40;64.90
40323;DHT22;26030;51.164;17.100;2022-08-21T06:26:13;25.40;64.60
40323;DHT22;26030;51.164;17.100;2022-08-21T06:31:20;25.40;65.40
40323;DHT22;26030;51.164;17.100;2022-08-21T06:36:24;25.30;64.70
40323;DHT22;26030;51.164;17.100;2022-08-21T06:41:26;25.40;64.60
40323;DHT22;26030;51.164;17.100;2022-08-21T06:46:29;25.40;64.60
40323;DHT22;26030;51.164;17.100;2022-08-21T06:51:34;25.40;64.70
40323;DHT22;26030;51.164;17.100;2022-08-21T06:56:39;25.40;64.80
40323;DHT22;26030;51.164;17.100;2022-08-21T07:01:42;25.30;64.80
40323;DHT22;26030;51.164;17.100;2022-08-21T07:06:46;25.30;64.30
40323;DHT22;26030;51.164;17.100;2022-08-21T07:11:51;25.20;63.90
40323;DHT22;26030;51.164;17.100;2022-08-21T07:16:57;25.20;63.50
40323;DHT22;26030;51.164;17.100;2022-08-21T07:22:01;25.20;63.30
40323;DHT22;26030;51.164;17.100;2022-08-21T07:27:04;25.20;63.20
40323;DHT22;26030;51.164;17.100;2022-08-21T07:32:16;25.20;63.00
40323;DHT22;26030;51.164;17.100;2022-08-21T07:37:22;25.10;62.20
40323;DHT22;26030;51.164;17.100;2022-08-21T07:42:25;25.00;62.30
40323;DHT22;26030;51.164;17.100;2022-08-21T07:47:28;25.00;61.50
40323;DHT22;26030;51.164;17.100;2022-08-21T07:52:51;24.90;61.40
40323;DHT22;26030;51.164;17.100;2022-08-21T07:57:55;24.90;61.30
40323;DHT22;26030;51.164;17.100;2022-08-21T08:02:58;24.90;61.20
40323;DHT22;26030;51.164;17.100;2022-08-21T08:08:02;24.90;61.50
40323;DHT22;26030;51.164;17.100;2022-08-21T08:13:09;24.80;60.50
40323;DHT22;26030;51.164;17.100;2022-08-21T08:18:13;24.80;61.00
40323;DHT22;26030;51.164;17.100;2022-08-21T08:23:28;24.70;61.00
40323;DHT22;26030;51.164;17.100;2022-08-21T08:28:33;24.70;61.10
40323;DHT22;26030;51.164;17.100;2022-08-21T08:33:37;24.70;61.00
40323;DHT22;26030;51.164;17.100;2022-08-21T08:38:40;24.60;61.00
40323;DHT22;26030;51.164;17.100;2022-08-21T08:43:49;24.60;60.90
40323;DHT22;26030;51.164;17.100;2022-08-21T08:49:06;24.60;61.00
40323;DHT22;26030;51.164;17.100;2022-08-21T08:54:28;24.60;61.20
40323;DHT22;26030;51.164;17.100;2022-08-21T08:59:40;24.70;61.30
40323;DHT22;26030;51.164;17.100;2022-08-21T09:04:46;24.70;61.30
40323;DHT22;26030;51.164;17.100;2022-08-21T09:26:21;24.80;61.40
40323;DHT22;26030;51.164;17.100;2022-08-21T09:31:32;24.80;61.30
40323;DHT22;26030;51.164;17.100;2022-08-21T09:36:42;24.80;61.40
40323;DHT22;26030;51.164;17.100;2022-08-21T09:42:01;24.80;61.60
40323;DHT22;26030;51.164;17.100;2022-08-21T09:47:09;24.80;62.20
40323;DHT22;26030;51.164;17.100;2022-08-21T09:52:21;24.80;61.50
40323;DHT22;26030;51.164;17.100;2022-08-21T09:57:29;24.70;61.10
40323;DHT22;26030;51.164;17.100;2022-08-21T10:02:48;24.70;61.20
40323;DHT22;26030;51.164;17.100;2022-08-21T10:07:54;24.70;61.00
40323;DHT22;26030;51.164;17.100;2022-08-21T10:13:16;24.70;60.90
40323;DHT22;26030;51.164;17.100;2022-08-21T10:18:26;24.70;60.70
40323;DHT22;26030;51.164;17.100;2022-08-21T10:29:06;24.70;60.40
40323;DHT22;26030;51.164;17.100;2022-08-21T10:56:45;24.70;59.80
40323;DHT22;26030;51.164;17.100;2022-08-21T11:07:51;24.60;59.60
40323;DHT22;26030;51.164;17.100;2022-08-21T11:13:11;24.70;59.80
40323;DHT22;26030;51.164;17.100;2022-08-21T11:19:12;24.70;59.30
40323;DHT22;26030;51.164;17.100;2022-08-21T11:29:37;24.60;60.00
40323;DHT22;26030;51.164;17.100;2022-08-21T11:50:30;24.70;60.20
40323;DHT22;26030;51.164;17.100;2022-08-21T11:55:41;24.60;60.20
40323;DHT22;26030;51.164;17.100;2022-08-21T12:00:49;24.70;60.30
40323;DHT22;26030;51.164;17.100;2022-08-21T12:05:54;24.70;60.40
40323;DHT22;26030;51.164;17.100;2022-08-21T12:11:09;24.60;60.30
40323;DHT22;26030;51.164;17.100;2022-08-21T12:16:29;24.70;60.40
40323;DHT22;26030;51.164;17.100;2022-08-21T12:26:57;24.60;60.20
40323;DHT22;26030;51.164;17.100;2022-08-21T12:37:15;24.60;60.10
40323;DHT22;26030;51.164;17.100;2022-08-21T12:42:32;24.50;60.00
40323;DHT22;26030;51.164;17.100;2022-08-21T12:47:45;24.50;60.10
40323;DHT22;26030;51.164;17.100;2022-08-21T12:52:57;24.50;60.10
40323;DHT22;26030;51.164;17.100;2022-08-21T12:58:04;24.50;60.20
40323;DHT22;26030;51.164;17.100;2022-08-21T13:03:07;24.50;60.30
40323;DHT22;26030;51.164;17.100;2022-08-21T13:08:10;24.50;60.30
40323;DHT22;26030;51.164;17.100;2022-08-21T13:13:18;24.50;60.40
40323;DHT22;26030;51.164;17.100;2022-08-21T13:18:30;24.50;60.60
40323;DHT22;26030;51.164;17.100;2022-08-21T13:23:35;24.50;60.70
40323;DHT22;26030;51.164;17.100;2022-08-21T13:28:38;24.50;61.20
40323;DHT22;26030;51.164;17.100;2022-08-21T13:33:40;24.50;61.00
40323;DHT22;26030;51.164;17.100;2022-08-21T13:38:44;24.50;61.10
40323;DHT22;26030;51.164;17.100;2022-08-21T13:43:49;24.50;61.30
40323;DHT22;26030;51.164;17.100;2022-08-21T13:49:03;24.40;61.40
40323;DHT22;26030;51.164;17.100;2022-08-21T13:59:41;24.40;61.70
40323;DHT22;26030;51.164;17.100;2022-08-21T14:04:51;24.40;61.90
40323;DHT22;26030;51.164;17.100;2022-08-21T14:15:26;24.40;62.60
40323;DHT22;26030;51.164;17.100;2022-08-21T14:20:32;24.30;62.70
40323;DHT22;26030;51.164;17.100;2022-08-21T14:25:42;24.30;62.50
40323;DHT22;26030;51.164;17.100;2022-08-21T14:30:47;24.30;62.50
40323;DHT22;26030;51.164;17.100;2022-08-21T14:35:53;24.30;62.50
40323;DHT22;26030;51.164;17.100;2022-08-21T14:40:59;24.20;62.60
40323;DHT22;26030;51.164;17.100;2022-08-21T14:46:10;24.30;62.80
40323;DHT22;26030;51.164;17.100;2022-08-21T14:51:15;24.20;62.80
40323;DHT22;26030;51.164;17.100;2022-08-21T14:56:17;24.30;62.90
40323;DHT22;26030;51.164;17.100;2022-08-21T15:01:26;24.30;63.20
40323;DHT22;26030;51.164;17.100;2022-08-21T15:06:29;24.30;63.10
40323;DHT22;26030;51.164;17.100;2022-08-21T15:11:31;24.20;63.10
40323;DHT22;26030;51.164;17.100;2022-08-21T15:16:43;24.20;62.80
40323;DHT22;26030;51.164;17.100;2022-08-21T15:21:46;24.20;63.10
40323;DHT22;26030;51.164;17.100;2022-08-21T15:26:48;24.20;63.60
40323;DHT22;26030;51.164;17.100;2022-08-21T15:31:58;24.20;63.50
40323;DHT22;26030;51.164;17.100;2022-08-21T15:37:03;24.10;63.60
40323;DHT22;26030;51.164;17.100;2022-08-21T15:42:09;24.10;63.80
40323;DHT22;26030;51.164;17.100;2022-08-21T15:47:15;24.10;63.80
40323;DHT22;26030;51.164;17.100;2022-08-21T15:52:21;24.10;63.90
40323;DHT22;26030;51.164;17.100;2022-08-21T15:57:24;24.10;63.90
40323;DHT22;26030;51.164;17.100;2022-08-21T16:02:33;24.10;64.20
40323;DHT22;26030;51.164;17.100;2022-08-21T16:07:36;24.10;64.00
40323;DHT22;26030;51.164;17.100;2022-08-21T16:12:40;24.10;63.90
40323;DHT22;26030;51.164;17.100;2022-08-21T16:17:48;24.10;64.20
40323;DHT22;26030;51.164;17.100;2022-08-21T16:22:54;24.10;64.00
40323;DHT22;26030;51.164;17.100;2022-08-21T16:27:58;24.10;64.10
40323;DHT22;26030;51.164;17.100;2022-08-21T16:33:03;24.10;64.20
40323;DHT22;26030;51.164;17.100;2022-08-21T16:38:07;24.10;64.30
40323;DHT22;26030;51.164;17.100;2022-08-21T16:43:09;24.10;64.60
40323;DHT22;26030;51.164;17.100;2022-08-21T16:48:12;24.10;64.50
40323;DHT22;26030;51.164;17.100;2022-08-21T16:53:14;24.10;64.70
40323;DHT22;26030;51.164;17.100;2022-08-21T16:58:25;24.10;64.90
40323;DHT22;26030;51.164;17.100;2022-08-21T17:03:33;24.00;65.00
40323;DHT22;26030;51.164;17.100;2022-08-21T17:08:46;24.00;65.20
40323;DHT22;26030;51.164;17.100;2022-08-21T17:13:54;24.00;64.90
40323;DHT22;26030;51.164;17.100;2022-08-21T17:18:58;24.00;65.50
40323;DHT22;26030;51.164;17.100;2022-08-21T17:24:01;23.90;65.70
40323;DHT22;26030;51.164;17.100;2022-08-21T17:29:04;23.90;66.10
40323;DHT22;26030;51.164;17.100;2022-08-21T17:34:11;23.90;66.10
40323;DHT22;26030;51.164;17.100;2022-08-21T17:39:15;23.90;66.10
40323;DHT22;26030;51.164;17.100;2022-08-21T17:44:31;23.80;66.20
40323;DHT22;26030;51.164;17.100;2022-08-21T17:49:35;23.80;65.80
40323;DHT22;26030;51.164;17.100;2022-08-21T17:54:37;23.80;65.30
40323;DHT22;26030;51.164;17.100;2022-08-21T17:59:42;23.90;65.10
40323;DHT22;26030;51.164;17.100;2022-08-21T18:04:44;23.80;64.90
40323;DHT22;26030;51.164;17.100;2022-08-21T18:09:47;23.80;64.60
40323;DHT22;26030;51.164;17.100;2022-08-21T18:14:50;23.80;64.60
40323;DHT22;26030;51.164;17.100;2022-08-21T18:19:52;23.80;64.10
40323;DHT22;26030;51.164;17.100;2022-08-21T18:24:55;23.80;63.80
40323;DHT22;26030;51.164;17.100;2022-08-21T18:29:58;23.80;63.60
40323;DHT22;26030;51.164;17.100;2022-08-21T18:35:04;23.80;63.40
40323;DHT22;26030;51.164;17.100;2022-08-21T18:40:12;23.80;63.30
40323;DHT22;26030;51.164;17.100;2022-08-21T18:45:18;23.80;63.30
40323;DHT22;26030;51.164;17.100;2022-08-21T18:50:23;23.80;63.20
40323;DHT22;26030;51.164;17.100;2022-08-21T18:55:27;23.80;63.40
40323;DHT22;26030;51.164;17.100;2022-08-21T19:00:33;23.80;63.30
40323;DHT22;26030;51.164;17.100;2022-08-21T19:05:45;23.80;62.90
40323;DHT22;26030;51.164;17.100;2022-08-21T19:10:49;23.80;62.90
40323;DHT22;26030;51.164;17.100;2022-08-21T19:15:56;23.80;62.90
40323;DHT22;26030;51.164;17.100;2022-08-21T19:21:05;23.80;62.90
40323;DHT22;26030;51.164;17.100;2022-08-21T19:26:09;23.80;62.90
40323;DHT22;26030;51.164;17.100;2022-08-21T19:31:16;23.80;63.00
40323;DHT22;26030;51.164;17.100;2022-08-21T19:36:31;23.80;63.00
40323;DHT22;26030;51.164;17.100;2022-08-21T19:41:36;23.80;63.10
40323;DHT22;26030;51.164;17.100;2022-08-21T19:46:54;23.70;63.10
40323;DHT22;26030;51.164;17.100;2022-08-21T19:51:59;23.70;63.20
40323;DHT22;26030;51.164;17.100;2022-08-21T19:57:04;23.70;63.20
40323;DHT22;26030;51.164;17.100;2022-08-21T20:02:08;23.70;63.30
40323;DHT22;26030;51.164;17.100;2022-08-21T20:07:16;23.70;62.80
40323;DHT22;26030;51.164;17.100;2022-08-21T20:12:28;23.80;63.70
40323;DHT22;26030;51.164;17.100;2022-08-21T20:17:31;23.70;63.30
40323;DHT22;26030;51.164;17.100;2022-08-21T20:22:35;23.80;63.30
40323;DHT22;26030;51.164;17.100;2022-08-21T20:27:38;23.80;63.60
40323;DHT22;26030;51.164;17.100;2022-08-21T20:32:44;23.80;63.50
40323;DHT22;26030;51.164;17.100;2022-08-21T20:37:47;23.80;63.20
40323;DHT22;26030;51.164;17.100;2022-08-21T20:43:02;23.80;63.20
40323;DHT22;26030;51.164;17.100;2022-08-21T20:59:03;23.80;63.40
40323;DHT22;26030;51.164;17.100;2022-08-21T21:04:22;23.80;63.70
40323;DHT22;26030;51.164;17.100;2022-08-21T21:09:34;23.80;63.40
40323;DHT22;26030;51.164;17.100;2022-08-21T21:14:44;23.80;63.40
40323;DHT22;26030;51.164;17.100;2022-08-21T21:19:54;23.80;63.50
40323;DHT22;26030;51.164;17.100;2022-08-21T21:30:42;23.80;63.70
40323;DHT22;26030;51.164;17.100;2022-08-21T21:36:02;23.80;64.00
40323;DHT22;26030;51.164;17.100;2022-08-21T21:41:20;23.80;64.10
40323;DHT22;26030;51.164;17.100;2022-08-21T21:46:52;23.80;63.80
40323;DHT22;26030;51.164;17.100;2022-08-21T22:13:22;23.80;64.80
40323;DHT22;26030;51.164;17.100;2022-08-21T22:18:30;23.70;64.20
40323;DHT22;26030;51.164;17.100;2022-08-21T22:23:48;23.70;64.20
40323;DHT22;26030;51.164;17.100;2022-08-21T22:28:53;23.60;64.10
40323;DHT22;26030;51.164;17.100;2022-08-21T22:39:28;23.60;63.80
40323;DHT22;26030;51.164;17.100;2022-08-21T22:45:03;23.60;64.00
40323;DHT22;26030;51.164;17.100;2022-08-21T22:50:17;23.50;64.10
40323;DHT22;26030;51.164;17.100;2022-08-21T23:11:45;23.40;64.00
40323;DHT22;26030;51.164;17.100;2022-08-21T23:16:55;23.40;64.30
40323;DHT22;26030;51.164;17.100;2022-08-21T23:33:28;23.50;63.70
40323;DHT22;26030;51.164;17.100;2022-08-21T23:38:55;23.50;63.60
40323;DHT22;26030;51.164;17.100;2022-08-21T23:50:25;23.50;63.60
